Time;durP1;ratioP1;P1;durP2;ratioP2;P2;SDS_P1;SDS_P2;PMS_P1;PMS_P2;Temp;Humidity;BMP_temperature;BMP_pressure;BME280_temperature;BME280_humidity;BME280_pressure;Samples;Min_cycle;Max_cycle;Signal;HPM_P1;HPM_P2
2022/03/24 00:02:20;;;;;;;1999.90;999.90;;;;;;;5.26;30.41;102556.09;4939886;28;97359;-76
2022/03/24 00:04:48;;;;;;;1999.90;999.90;;;;;;;5.26;30.51;102556.09;4942611;28;99085;-76
2022/03/24 00:07:15;;;;;;;1999.90;999.90;;;;;;;5.25;30.42;102549.88;4939509;28;98062;-77
2022/03/24 00:09:44;;;;;;;1999.90;999.90;;;;;;;5.26;30.36;102543.81;4941296;28;96844;-76
2022/03/24 00:12:12;;;;;;;1999.90;999.90;;;;;;;5.26;30.49;102543.81;4938048;28;97945;-77
2022/03/24 00:14:40;;;;;;;1999.90;999.90;;;;;;;5.24;30.29;102553.34;4937481;28;99634;-76
2022/03/24 00:17:08;;;;;;;1999.90;999.90;;;;;;;5.21;30.32;102547.84;4940201;28;98061;-76
2022/03/24 00:19:36;;;;;;;1999.90;999.90;;;;;;;5.14;30.53;102553.50;4943116;28;97212;-76
2022/03/24 00:22:04;;;;;;;1999.90;999.90;;;;;;;5.10;30.53;102549.72;4937893;28;97331;-76
2022/03/24 00:24:32;;;;;;;1999.90;999.90;;;;;;;5.07;30.67;102553.88;4939109;28;100845;-76
2022/03/24 00:27:02;;;;;;;1999.90;999.90;;;;;;;5.05;30.53;102550.19;4936777;28;98834;-76
2022/03/24 00:29:30;;;;;;;1999.90;999.90;;;;;;;5.00;30.85;102549.84;4943157;28;96981;-77
2022/03/24 00:31:58;;;;;;;1999.90;999.90;;;;;;;4.92;30.81;102558.00;4958927;28;97035;-76
2022/03/24 00:34:26;;;;;;;1999.90;999.90;;;;;;;4.84;30.73;102549.56;4941143;28;100653;-76
2022/03/24 00:36:54;;;;;;;1999.90;999.90;;;;;;;4.75;31.06;102550.59;4947607;28;98474;-77
2022/03/24 00:39:22;;;;;;;1999.90;999.90;;;;;;;4.69;31.16;102548.44;4947900;28;97040;-76
2022/03/24 00:41:49;;;;;;;1999.90;999.90;;;;;;;4.66;31.29;102549.94;4946922;28;97744;-76
2022/03/24 00:44:19;;;;;;;1999.90;999.90;;;;;;;4.61;31.17;102551.34;4946442;28;99160;-77
2022/03/24 00:46:48;;;;;;;1999.90;999.90;;;;;;;4.56;31.40;102552.69;4928450;28;99556;-76
2022/03/24 00:49:16;;;;;;;1999.90;999.90;;;;;;;4.51;31.45;102548.81;4947473;28;97156;-77
2022/03/24 00:51:44;;;;;;;1999.90;999.90;;;;;;;4.45;31.47;102543.09;4945004;28;98974;-76
2022/03/24 00:54:11;;;;;;;1999.90;999.90;;;;;;;4.39;31.49;102545.28;4944529;28;99773;-76
2022/03/24 00:56:39;;;;;;;1999.90;999.90;;;;;;;4.32;31.47;102550.91;4928484;28;100488;-77
2022/03/24 00:59:08;;;;;;;1999.90;999.90;;;;;;;4.26;31.81;102550.44;4943839;28;97086;-76
2022/03/24 01:01:39;;;;;;;1999.90;999.90;;;;;;;4.21;31.79;102553.66;4927578;28;96986;-77
2022/03/24 01:04:07;;;;;;;1999.90;999.90;;;;;;;4.17;31.95;102551.56;4943086;28;98992;-76
2022/03/24 01:06:35;;;;;;;1999.90;999.90;;;;;;;4.12;31.68;102554.66;4942623;28;97634;-76
2022/03/24 01:09:03;;;;;;;1999.90;999.90;;;;;;;4.07;31.97;102554.34;4955227;28;97659;-77
2022/03/24 01:11:31;;;;;;;1999.90;999.90;;;;;;;4.03;31.84;102552.28;4947388;28;96785;-76
2022/03/24 01:14:00;;;;;;;1999.90;999.90;;;;;;;4.01;31.92;102548.59;4945156;28;97694;-76
2022/03/24 01:16:29;;;;;;;1999.90;999.90;;;;;;;4.00;32.20;102552.06;4945747;28;99548;-76
2022/03/24 01:18:58;;;;;;;1999.90;999.90;;;;;;;4.01;31.98;102545.97;4943655;28;96869;-76
2022/03/24 01:21:26;;;;;;;1999.90;999.90;;;;;;;4.03;32.04;102548.72;4928946;28;97883;-76
2022/03/24 01:23:55;;;;;;;1999.90;999.90;;;;;;;4.04;32.38;102548.81;4928173;28;98990;-77
2022/03/24 01:26:22;;;;;;;1999.90;999.90;;;;;;;4.03;32.31;102554.91;4944767;28;99405;-75
2022/03/24 01:28:52;;;;;;;1999.90;999.90;;;;;;;4.02;32.01;102546.88;4945721;28;97948;-77
2022/03/24 01:31:20;;;;;;;1999.90;999.90;;;;;;;4.02;32.05;102553.06;4945006;28;97569;-76
2022/03/24 01:33:48;;;;;;;1999.90;999.90;;;;;;;3.98;32.17;102548.38;4958649;28;98692;-76
2022/03/24 01:36:18;;;;;;;1999.90;999.90;;;;;;;3.96;32.39;102544.72;4943113;28;100470;-76
2022/03/24 01:38:46;;;;;;;1999.90;999.90;;;;;;;3.90;32.09;102548.56;4945204;28;97115;-76
2022/03/24 01:41:18;;;;;;;1999.90;999.90;;;;;;;3.83;32.51;102543.66;4943932;28;96937;-76
2022/03/24 01:43:46;;;;;;;1999.90;999.90;;;;;;;3.78;32.69;102540.69;4942949;28;97588;-76
2022/03/24 01:46:20;;;;;;;1999.90;999.90;;;;;;;3.75;32.05;102543.06;4960258;28;99631;-76
2022/03/24 01:48:48;;;;;;;1999.90;999.90;;;;;;;3.73;32.56;102542.03;4944458;28;97869;-76
2022/03/24 01:51:18;;;;;;;1999.90;999.90;;;;;;;3.72;32.31;102541.91;4958165;28;97120;-76
2022/03/24 01:53:45;;;;;;;1999.90;999.90;;;;;;;3.68;32.58;102546.03;4941975;28;97648;-76
2022/03/24 01:56:14;;;;;;;1999.90;999.90;;;;;;;3.64;32.80;102535.13;4941595;28;99696;-76
2022/03/24 01:58:42;;;;;;;1999.90;999.90;;;;;;;3.63;32.51;102535.91;4927688;28;98324;-76
2022/03/24 02:01:26;;;;;;;1999.90;999.90;;;;;;;3.57;32.83;102535.47;4940037;28;98062;-76
2022/03/24 02:03:55;;;;;;;1999.90;999.90;;;;;;;3.59;32.45;102537.38;4942411;28;100351;-76
2022/03/24 02:06:26;;;;;;;1999.90;999.90;;;;;;;3.57;32.87;102532.81;4925972;28;99843;-77
2022/03/24 02:08:55;;;;;;;1999.90;999.90;;;;;;;3.55;32.81;102534.41;4942762;28;97365;-77
2022/03/24 02:11:23;;;;;;;1999.90;999.90;;;;;;;3.51;32.59;102530.63;4941473;28;97474;-77
2022/03/24 02:13:50;;;;;;;1999.90;999.90;;;;;;;3.48;32.79;102534.75;4925429;28;99457;-76
2022/03/24 02:16:18;;;;;;;1999.90;999.90;;;;;;;3.46;33.11;102528.44;4926692;28;100333;-75
2022/03/24 02:18:46;;;;;;;1999.90;999.90;;;;;;;3.43;32.57;102528.19;4926558;28;96909;-76
2022/03/24 02:21:15;;;;;;;1999.90;999.90;;;;;;;3.40;32.54;102523.63;4961567;28;96830;-77
2022/03/24 02:23:45;;;;;;;1999.90;999.90;;;;;;;3.39;33.18;102521.78;4943854;28;97937;-77
2022/03/24 02:26:13;;;;;;;1999.90;999.90;;;;;;;3.35;32.68;102524.06;4947191;28;96909;-77
2022/03/24 02:28:42;;;;;;;1999.90;999.90;;;;;;;3.29;33.21;102524.50;4948497;28;96775;-77
2022/03/24 02:31:10;;;;;;;1999.90;999.90;;;;;;;3.24;33.22;102518.88;4961625;28;96853;-77
2022/03/24 02:33:38;;;;;;;1999.90;999.90;;;;;;;3.22;32.81;102523.09;4945548;28;98199;-77
2022/03/24 02:36:06;;;;;;;1999.90;999.90;;;;;;;3.21;33.17;102518.63;4944728;28;99882;-76
2022/03/24 02:38:34;;;;;;;1999.90;999.90;;;;;;;3.20;33.08;102519.41;4942907;28;97716;-76
2022/03/24 02:41:04;;;;;;;1999.90;999.90;;;;;;;3.20;33.47;102521.16;4945639;28;96886;-76
2022/03/24 02:43:32;;;;;;;1999.90;999.90;;;;;;;3.19;33.47;102522.84;4943295;28;101380;-76
2022/03/24 02:46:01;;;;;;;1999.90;999.90;;;;;;;3.17;33.50;102524.44;4943555;28;100271;-76
2022/03/24 02:48:30;;;;;;;1999.90;999.90;;;;;;;3.15;33.46;102519.84;4946641;28;96898;-77
2022/03/24 02:50:59;;;;;;;1999.90;999.90;;;;;;;3.11;33.08;102515.19;4944187;28;96909;-76
2022/03/24 02:53:27;;;;;;;1999.90;999.90;;;;;;;3.10;34.05;102522.13;4942852;28;96784;-76
2022/03/24 02:55:55;;;;;;;1999.90;999.90;;;;;;;3.11;33.65;102523.06;4942166;28;100290;-76
2022/03/24 02:58:24;;;;;;;1999.90;999.90;;;;;;;3.10;33.56;102521.22;4944184;28;97695;-76
2022/03/24 03:00:53;;;;;;;1999.90;999.90;;;;;;;3.12;33.45;102514.38;4943782;28;97658;-76
2022/03/24 03:03:22;;;;;;;1999.90;999.90;;;;;;;3.12;33.73;102517.91;4942037;28;100518;-76
2022/03/24 03:05:49;;;;;;;1999.90;999.90;;;;;;;3.14;32.98;102516.34;4940915;28;100537;-76
2022/03/24 03:08:18;;;;;;;1999.90;999.90;;;;;;;3.17;33.34;102520.91;4927601;28;97337;-75
2022/03/24 03:10:45;;;;;;;1999.90;999.90;;;;;;;3.16;33.26;102521.72;4942585;28;100452;-75
2022/03/24 03:13:13;;;;;;;1999.90;999.90;;;;;;;3.13;33.74;102518.84;4943435;28;99242;-76
2022/03/24 03:15:42;;;;;;;1999.90;999.90;;;;;;;3.08;33.34;102530.69;4944120;28;98718;-76
2022/03/24 03:18:10;;;;;;;1999.90;999.90;;;;;;;3.03;33.86;102527.72;4942947;28;98122;-76
2022/03/24 03:20:37;;;;;;;1999.90;999.90;;;;;;;2.96;33.61;102527.09;4943998;28;97756;-76
2022/03/24 03:23:06;;;;;;;1999.90;999.90;;;;;;;2.91;33.84;102525.84;4940256;28;101348;-77
2022/03/24 03:25:34;;;;;;;1999.90;999.90;;;;;;;2.88;33.61;102528.19;4935755;28;99957;-76
2022/03/24 03:28:01;;;;;;;1999.90;999.90;;;;;;;2.81;34.10;102532.06;4941622;28;97798;-76
2022/03/24 03:30:30;;;;;;;1999.90;999.90;;;;;;;2.75;33.49;102528.94;4941968;28;97721;-77
2022/03/24 03:32:59;;;;;;;1999.90;999.90;;;;;;;2.70;33.85;102537.25;4942972;28;98946;-77
2022/03/24 03:35:29;;;;;;;1999.90;999.90;;;;;;;2.68;33.87;102538.81;4942994;28;99302;-77
2022/03/24 03:37:57;;;;;;;1999.90;999.90;;;;;;;2.68;34.10;102539.75;4943682;28;96977;-78
2022/03/24 03:40:24;;;;;;;1999.90;999.90;;;;;;;2.67;34.65;102532.69;4939795;28;97836;-77
2022/03/24 03:42:53;;;;;;;1999.90;999.90;;;;;;;2.67;34.46;102534.38;4944820;28;99165;-77
2022/03/24 03:45:20;;;;;;;1999.90;999.90;;;;;;;2.67;33.83;102542.25;4944796;28;97654;-77
2022/03/24 03:47:48;;;;;;;1999.90;999.90;;;;;;;2.65;34.42;102534.25;4944948;28;97642;-77
2022/03/24 03:50:17;;;;;;;1999.90;999.90;;;;;;;2.62;34.23;102539.25;4942704;28;97860;-77
2022/03/24 03:52:45;;;;;;;1999.90;999.90;;;;;;;2.57;34.65;102531.78;4939718;28;97666;-78
2022/03/24 03:55:15;;;;;;;1999.90;999.90;;;;;;;2.54;34.39;102534.19;4936425;28;100798;-77
2022/03/24 03:57:42;;;;;;;1999.90;999.90;;;;;;;2.55;34.22;102530.75;4954547;28;98436;-77
2022/03/24 04:02:53;;;;;;;1999.90;999.90;;;;;;;2.50;34.51;102533.00;4939574;28;101529;-77
2022/03/24 04:05:25;;;;;;;1999.90;999.90;;;;;;;2.46;34.34;102535.25;4957413;28;99485;-77
2022/03/24 04:07:53;;;;;;;1999.90;999.90;;;;;;;2.41;34.74;102533.97;4944590;28;98343;-77
2022/03/24 04:10:21;;;;;;;1999.90;999.90;;;;;;;2.36;34.50;102532.69;4942433;28;98215;-77
2022/03/24 04:12:50;;;;;;;1999.90;999.90;;;;;;;2.33;34.53;102535.97;4943801;28;97686;-77
2022/03/24 04:15:18;;;;;;;1999.90;999.90;;;;;;;2.30;34.80;102533.09;4948581;28;98618;-77
2022/03/24 04:17:46;;;;;;;1999.90;999.90;;;;;;;2.29;34.59;102535.59;4945977;28;96912;-77
2022/03/24 04:20:20;;;;;;;1999.90;999.90;;;;;;;2.29;34.74;102535.59;4947238;28;97777;-77
2022/03/24 04:22:50;;;;;;;1999.90;999.90;;;;;;;2.31;35.11;102528.78;4944417;28;99384;-77
2022/03/24 04:25:18;;;;;;;1999.90;999.90;;;;;;;2.31;34.39;102528.78;4941650;28;101066;-77
2022/03/24 04:27:46;;;;;;;1999.90;999.90;;;;;;;2.29;34.47;102530.34;4946787;28;97360;-77
2022/03/24 04:30:14;;;;;;;1999.90;999.90;;;;;;;2.27;34.73;102531.94;4946472;28;97168;-77
2022/03/24 04:32:42;;;;;;;1999.90;999.90;;;;;;;2.23;34.96;102529.84;4945023;28;99419;-77
2022/03/24 04:35:11;;;;;;;1999.90;999.90;;;;;;;2.20;35.03;102531.41;4945386;28;100571;-77
2022/03/24 04:37:38;;;;;;;1999.90;999.90;;;;;;;2.13;35.43;102528.16;4931851;28;98510;-77
2022/03/24 04:40:10;;;;;;;1999.90;999.90;;;;;;;2.05;35.03;102529.22;4963349;28;97697;-77
2022/03/24 04:42:39;;;;;;;1999.90;999.90;;;;;;;1.99;34.77;102526.06;4945249;28;98512;-78
2022/03/24 04:45:09;;;;;;;1999.90;999.90;;;;;;;1.94;35.25;102525.69;4928726;28;99330;-77
2022/03/24 04:47:37;;;;;;;1999.90;999.90;;;;;;;1.92;34.78;102523.72;4948520;28;97429;-77
2022/03/24 04:50:06;;;;;;;1999.90;999.90;;;;;;;1.89;35.27;102531.34;4929115;28;97789;-78
2022/03/24 04:52:34;;;;;;;1999.90;999.90;;;;;;;1.89;35.60;102529.63;4947281;28;97815;-77
2022/03/24 04:55:02;;;;;;;1999.90;999.90;;;;;;;1.89;34.89;102527.00;4944154;28;98800;-76
2022/03/24 04:57:31;;;;;;;1999.90;999.90;;;;;;;1.88;35.10;102519.94;4946986;28;98363;-76
2022/03/24 04:59:59;;;;;;;1999.90;999.90;;;;;;;1.88;35.41;102530.44;4944764;28;98405;-74
2022/03/24 05:02:26;;;;;;;1999.90;999.90;;;;;;;1.89;34.79;102527.00;4945739;28;97636;-74
2022/03/24 05:04:54;;;;;;;1999.90;999.90;;;;;;;1.90;34.69;102527.94;4943481;28;97966;-74
2022/03/24 05:07:22;;;;;;;1999.90;999.90;;;;;;;1.88;35.25;102521.63;4944410;28;98200;-74
2022/03/24 05:09:50;;;;;;;1999.90;999.90;;;;;;;1.87;35.06;102530.31;4945338;28;96844;-73
2022/03/24 05:12:18;;;;;;;1999.90;999.90;;;;;;;1.84;35.30;102523.09;4944275;28;98067;-73
2022/03/24 05:14:47;;;;;;;1999.90;999.90;;;;;;;1.82;35.62;102526.34;4943648;28;98691;-75
2022/03/24 05:17:15;;;;;;;1999.90;999.90;;;;;;;1.78;35.56;102527.81;4944191;28;100566;-74
2022/03/24 05:19:44;;;;;;;1999.90;999.90;;;;;;;1.77;35.92;102528.63;4945095;28;96981;-74
2022/03/24 05:22:12;;;;;;;1999.90;999.90;;;;;;;1.74;35.24;102525.75;4943418;28;97645;-74
2022/03/24 05:24:41;;;;;;;1999.90;999.90;;;;;;;1.71;35.96;102537.66;4944088;28;99240;-74
2022/03/24 05:27:10;;;;;;;1999.90;999.90;;;;;;;1.66;35.40;102542.53;4941455;28;97641;-74
2022/03/24 05:29:38;;;;;;;1999.90;999.90;;;;;;;1.64;35.39;102537.94;4947017;28;96761;-74
2022/03/24 05:32:08;;;;;;;1999.90;999.90;;;;;;;1.60;35.58;102525.38;4939375;28;98902;-74
2022/03/24 05:34:36;;;;;;;1999.90;999.90;;;;;;;1.56;35.49;102532.03;4942569;28;98050;-74
2022/03/24 05:37:05;;;;;;;1999.90;999.90;;;;;;;1.52;35.71;102539.53;4943876;28;98539;-74
2022/03/24 05:39:33;;;;;;;1999.90;999.90;;;;;;;1.48;36.02;102532.16;4944618;28;97146;-74
2022/03/24 05:42:02;;;;;;;1999.90;999.90;;;;;;;1.44;36.41;102531.00;4942253;28;100596;-74
2022/03/24 05:44:31;;;;;;;1999.90;999.90;;;;;;;1.41;35.73;102533.38;4957500;28;98848;-74
2022/03/24 05:46:59;;;;;;;1999.90;999.90;;;;;;;1.40;35.64;102530.63;4942640;28;98490;-74
2022/03/24 05:49:28;;;;;;;1999.90;999.90;;;;;;;1.38;35.58;102533.09;4925990;28;97077;-72
2022/03/24 05:51:56;;;;;;;1999.90;999.90;;;;;;;1.37;36.10;102541.75;4938016;28;97299;-73
2022/03/24 05:54:24;;;;;;;1999.90;999.90;;;;;;;1.36;35.95;102545.16;4936656;28;99717;-73
2022/03/24 05:56:51;;;;;;;1999.90;999.90;;;;;;;1.35;35.95;102545.03;4939419;28;98482;-73
2022/03/24 05:59:19;;;;;;;1999.90;999.90;;;;;;;1.35;36.24;102540.69;4940156;28;98782;-73
2022/03/24 06:01:47;;;;;;;1999.90;999.90;;;;;;;1.36;36.26;102545.16;4939209;28;99867;-73
2022/03/24 06:04:18;;;;;;;1999.90;999.90;;;;;;;1.37;36.22;102547.00;4941711;28;100494;-73
2022/03/24 06:06:50;;;;;;;1999.90;999.90;;;;;;;1.36;36.27;102544.25;4945217;28;98015;-73
2022/03/24 06:09:18;;;;;;;1999.90;999.90;;;;;;;1.34;36.55;102552.00;4941881;28;97341;-73
2022/03/24 06:11:46;;;;;;;1999.90;999.90;;;;;;;1.35;36.57;102551.19;4938669;28;98124;-73
2022/03/24 06:14:14;;;;;;;1999.90;999.90;;;;;;;1.37;36.00;102557.50;4938890;28;99403;-73
2022/03/24 06:16:42;;;;;;;1999.90;999.90;;;;;;;1.40;36.61;102554.22;4938099;28;99197;-73
2022/03/24 06:19:10;;;;;;;1999.90;999.90;;;;;;;1.41;36.42;102554.34;4938098;28;97365;-73
2022/03/24 06:21:38;;;;;;;1999.90;999.90;;;;;;;1.44;36.09;102551.97;4941219;28;99617;-72
2022/03/24 06:24:08;;;;;;;1999.90;999.90;;;;;;;1.45;36.62;102545.94;4944767;28;97737;-71
2022/03/24 06:26:36;;;;;;;1999.90;999.90;;;;;;;1.47;36.28;102549.59;4945453;28;96839;-73
2022/03/24 06:29:04;;;;;;;1999.90;999.90;;;;;;;1.47;36.37;102549.59;4945521;28;97660;-73
2022/03/24 06:31:32;;;;;;;1999.90;999.90;;;;;;;1.47;36.44;102560.09;4942330;28;98507;-73
2022/03/24 06:34:00;;;;;;;1999.90;999.90;;;;;;;1.46;35.96;102558.28;4943737;28;97607;-73
2022/03/24 06:36:27;;;;;;;1999.90;999.90;;;;;;;1.49;36.55;102565.50;4943621;28;96959;-73
2022/03/24 06:38:55;;;;;;;1999.90;999.90;;;;;;;1.49;36.34;102555.00;4946674;28;97588;-73
2022/03/24 06:41:24;;;;;;;1999.90;999.90;;;;;;;1.50;36.50;102565.63;4943145;28;97644;-73
2022/03/24 06:43:55;;;;;;;1999.90;999.90;;;;;;;1.49;36.23;102563.78;4940987;28;99706;-73
2022/03/24 06:46:23;;;;;;;1999.90;999.90;;;;;;;1.50;36.65;102570.88;4945247;28;96788;-73
2022/03/24 06:48:51;;;;;;;1999.90;999.90;;;;;;;1.50;36.62;102565.63;4947207;28;97638;-73
2022/03/24 06:51:19;;;;;;;1999.90;999.90;;;;;;;1.51;37.23;102572.69;4928592;28;99018;-73
2022/03/24 06:53:46;;;;;;;1999.90;999.90;;;;;;;1.54;36.55;102574.69;4945829;28;98727;-73
2022/03/24 06:56:14;;;;;;;1999.90;999.90;;;;;;;1.56;36.25;102563.50;4945723;28;98046;-73
2022/03/24 06:58:49;;;;;;;1999.90;999.90;;;;;;;1.55;36.70;102561.69;4947431;28;97674;-72
2022/03/24 07:01:17;;;;;;;1999.90;999.90;;;;;;;1.57;36.37;102564.44;4945195;28;99277;-73
2022/03/24 07:03:46;;;;;;;1999.90;999.90;;;;;;;1.60;36.43;102563.00;4944669;28;98291;-72
2022/03/24 07:06:14;;;;;;;1999.90;999.90;;;;;;;1.66;36.46;102565.22;4944848;28;97798;-73
2022/03/24 07:08:42;;;;;;;1999.90;999.90;;;;;;;1.71;36.92;102563.91;4947358;28;97461;-73
2022/03/24 07:11:09;;;;;;;1999.90;999.90;;;;;;;1.77;36.29;102557.47;4944332;28;97846;-73
2022/03/24 07:13:37;;;;;;;1999.90;999.90;;;;;;;1.83;36.32;102571.13;4944251;28;97758;-73
2022/03/24 07:16:10;;;;;;;1999.90;999.90;;;;;;;1.87;36.61;102564.44;4960872;28;97915;-73
2022/03/24 07:18:38;;;;;;;1999.90;999.90;;;;;;;1.92;36.24;102574.53;4944912;28;97783;-73
2022/03/24 07:21:06;;;;;;;1999.90;999.90;;;;;;;1.98;35.98;102572.41;4944925;28;97770;-73
2022/03/24 07:23:34;;;;;;;1999.90;999.90;;;;;;;2.04;36.12;102569.38;4945207;28;97854;-73
2022/03/24 07:26:01;;;;;;;1999.90;999.90;;;;;;;2.10;35.85;102575.19;4946474;28;96775;-73
2022/03/24 07:28:29;;;;;;;1999.90;999.90;;;;;;;2.14;36.41;102577.28;4946336;28;97574;-73
2022/03/24 07:30:57;;;;;;;1999.90;999.90;;;;;;;2.15;36.03;102577.41;4944868;28;97698;-73
2022/03/24 07:33:26;;;;;;;1999.90;999.90;;;;;;;2.19;35.99;102579.50;4942639;28;100096;-73
2022/03/24 07:35:54;;;;;;;1999.90;999.90;;;;;;;2.23;36.41;102582.38;4943181;28;97224;-72
2022/03/24 07:38:22;;;;;;;1999.90;999.90;;;;;;;2.28;36.07;102579.34;4945698;28;96872;-73
2022/03/24 07:40:54;;;;;;;1999.90;999.90;;;;;;;2.34;36.30;102579.84;4961091;28;98042;-73
2022/03/24 07:43:22;;;;;;;1999.90;999.90;;;;;;;2.39;35.90;102573.25;4941273;28;99203;-73
2022/03/24 07:45:51;;;;;;;1999.90;999.90;;;;;;;2.45;36.25;102579.03;4945094;28;97589;-73
2022/03/24 07:48:25;;;;;;;1999.90;999.90;;;;;;;2.52;35.89;102573.47;4943914;28;97861;-73
2022/03/24 07:50:55;;;;;;;1999.90;999.90;;;;;;;2.56;36.12;102582.53;4943771;28;100376;-74
2022/03/24 07:53:54;;;;;;;1999.90;999.90;;;;;;;2.58;36.51;102581.88;4944296;28;97501;-73
2022/03/24 07:56:24;;;;;;;1999.90;999.90;;;;;;;2.68;35.92;102586.13;4943975;28;97167;-74
2022/03/24 07:58:52;;;;;;;1999.90;999.90;;;;;;;2.74;35.98;102587.56;4946254;28;97368;-74
2022/03/24 08:01:26;;;;;;;1999.90;999.90;;;;;;;2.79;36.20;102586.22;4943714;28;97760;-74
2022/03/24 08:03:54;;;;;;;1999.90;999.90;;;;;;;2.88;36.09;102586.03;4943603;28;100269;-73
2022/03/24 08:06:23;;;;;;;1999.90;999.90;;;;;;;2.93;35.90;102582.09;4944125;28;96947;-73
2022/03/24 08:08:50;;;;;;;1999.90;999.90;;;;;;;2.98;35.54;102583.38;4945666;28;97085;-73
2022/03/24 08:11:18;;;;;;;1999.90;999.90;;;;;;;3.00;35.41;102577.41;4943916;28;97981;-74
2022/03/24 08:13:50;;;;;;;1999.90;999.90;;;;;;;3.04;36.00;102578.56;4943368;28;98456;-74
2022/03/24 08:16:18;;;;;;;1999.90;999.90;;;;;;;3.09;35.45;102587.78;4943286;28;98118;-73
2022/03/24 08:18:45;;;;;;;1999.90;999.90;;;;;;;3.13;35.57;102581.97;4944032;28;96771;-73
2022/03/24 08:21:13;;;;;;;1999.90;999.90;;;;;;;3.20;35.31;102572.03;4944108;28;97568;-73
2022/03/24 08:23:43;;;;;;;1999.90;999.90;;;;;;;3.28;35.32;102575.28;4943741;28;97583;-74
2022/03/24 08:26:10;;;;;;;1999.90;999.90;;;;;;;3.34;34.98;102581.03;4944399;28;96847;-73
2022/03/24 08:28:38;;;;;;;1999.90;999.90;;;;;;;3.41;34.91;102574.50;4944893;28;97492;-73
2022/03/24 08:31:06;;;;;;;1999.90;999.90;;;;;;;3.47;35.45;102586.47;4943981;28;98409;-73
2022/03/24 08:33:34;;;;;;;1999.90;999.90;;;;;;;3.54;35.08;102585.22;4943653;28;97368;-73
2022/03/24 08:36:01;;;;;;;1999.90;999.90;;;;;;;3.59;35.11;102576.88;4943301;28;97952;-73
2022/03/24 08:38:29;;;;;;;1999.90;999.90;;;;;;;3.65;35.42;102585.28;4927060;28;97872;-73
2022/03/24 08:40:58;;;;;;;1999.90;999.90;;;;;;;3.70;35.31;102583.00;4943904;28;97713;-73
2022/03/24 08:43:26;;;;;;;1999.90;999.90;;;;;;;3.74;35.57;102586.00;4943126;28;97920;-73
2022/03/24 08:45:54;;;;;;;1999.90;999.90;;;;;;;3.78;35.19;102588.06;4945346;28;97036;-73
2022/03/24 08:48:21;;;;;;;1999.90;999.90;;;;;;;3.85;34.82;102599.97;4945144;28;97241;-72
2022/03/24 08:50:49;;;;;;;1999.90;999.90;;;;;;;3.90;34.96;102598.63;4944429;28;98824;-71
2022/03/24 08:53:17;;;;;;;1999.90;999.90;;;;;;;3.97;34.75;102595.69;4947704;28;98993;-72
2022/03/24 08:55:45;;;;;;;1999.90;999.90;;;;;;;4.03;35.00;102597.03;4946864;28;97154;-72
2022/03/24 08:58:18;;;;;;;1999.90;999.90;;;;;;;4.08;34.80;102600.00;4949388;28;96844;-73
2022/03/24 09:00:46;;;;;;;1999.90;999.90;;;;;;;4.11;34.69;102595.94;4947490;28;98753;-73
2022/03/24 09:03:21;;;;;;;1999.90;999.90;;;;;;;4.17;34.69;102593.72;4946117;28;98482;-72
2022/03/24 09:05:49;;;;;;;1999.90;999.90;;;;;;;4.22;34.71;102595.00;4946162;28;96785;-73
2022/03/24 09:08:17;;;;;;;1999.90;999.90;;;;;;;4.28;34.53;102601.53;4949208;28;98056;-73
2022/03/24 09:10:47;;;;;;;1999.90;999.90;;;;;;;4.34;34.60;102599.34;4947153;28;98634;-74
2022/03/24 09:13:16;;;;;;;1999.90;999.90;;;;;;;4.42;34.51;102603.50;4945365;28;98959;-73
2022/03/24 09:15:44;;;;;;;1999.90;999.90;;;;;;;4.49;34.37;102605.78;4947356;28;96938;-73
2022/03/24 09:18:13;;;;;;;1999.90;999.90;;;;;;;4.58;34.32;102601.19;4948193;28;97152;-73
2022/03/24 09:20:42;;;;;;;1999.90;999.90;;;;;;;4.64;34.19;102596.38;4946621;28;99325;-74
2022/03/24 09:23:10;;;;;;;1999.90;999.90;;;;;;;4.70;34.20;102603.00;4946127;28;98327;-73
2022/03/24 09:25:39;;;;;;;1999.90;999.90;;;;;;;4.77;34.32;102601.75;4947158;28;97628;-73
2022/03/24 09:28:07;;;;;;;1999.90;999.90;;;;;;;4.84;34.20;102593.47;4946983;28;97035;-73
2022/03/24 09:30:36;;;;;;;1999.90;999.90;;;;;;;4.92;34.11;102600.19;4946135;28;99300;-73
2022/03/24 09:33:04;;;;;;;1999.90;999.90;;;;;;;4.97;34.03;102593.56;4945283;28;98999;-73
2022/03/24 09:35:33;;;;;;;1999.90;999.90;;;;;;;5.03;34.03;102596.66;4947160;28;97597;-73
2022/03/24 09:38:01;;;;;;;1999.90;999.90;;;;;;;5.07;33.97;102597.00;4947387;28;98319;-73
2022/03/24 09:40:28;;;;;;;1999.90;999.90;;;;;;;5.12;33.98;102598.25;4945375;28;99132;-74
2022/03/24 09:42:56;;;;;;;1999.90;999.90;;;;;;;5.19;33.87;102594.34;4945610;28;98635;-73
2022/03/24 09:45:25;;;;;;;1999.90;999.90;;;;;;;5.29;34.00;102595.88;4945593;28;96929;-73
2022/03/24 09:47:55;;;;;;;1999.90;999.90;;;;;;;5.35;33.69;102591.97;4946467;28;96939;-73
2022/03/24 09:50:24;;;;;;;1999.90;999.90;;;;;;;5.42;33.67;102591.59;4946914;28;98360;-73
2022/03/24 09:52:53;;;;;;;1999.90;999.90;;;;;;;5.50;33.70;102593.06;4947329;28;97803;-73
2022/03/24 09:55:21;;;;;;;1999.90;999.90;;;;;;;5.57;33.39;102592.69;4945028;28;99110;-73
2022/03/24 09:57:49;;;;;;;1999.90;999.90;;;;;;;5.63;33.45;102589.56;4947684;28;97738;-73
2022/03/24 10:00:36;;;;;;;1999.90;999.90;;;;;;;5.70;33.56;102586.53;4946989;28;96868;-73
2022/03/24 10:03:10;;;;;;;1999.90;999.90;;;;;;;5.76;33.82;102584.28;4945127;28;97632;-73
2022/03/24 10:05:54;;;;;;;1999.90;999.90;;;;;;;5.80;33.95;102587.25;4946433;28;98059;-73
2022/03/24 10:08:21;;;;;;;1999.90;999.90;;;;;;;5.88;33.58;102582.50;4947150;28;97035;-74
2022/03/24 10:10:49;;;;;;;1999.90;999.90;;;;;;;5.94;33.20;102575.91;4944909;28;100511;-73
2022/03/24 10:13:24;;;;;;;1999.90;999.90;;;;;;;6.02;33.33;102579.06;4945923;28;97496;-73
2022/03/24 10:15:52;;;;;;;1999.90;999.90;;;;;;;6.08;33.56;102572.50;4945293;28;97470;-73
2022/03/24 10:18:21;;;;;;;1999.90;999.90;;;;;;;6.15;33.22;102573.81;4947779;28;96651;-74
2022/03/24 10:20:49;;;;;;;1999.90;999.90;;;;;;;6.20;32.89;102568.03;4946825;28;97839;-73
2022/03/24 10:23:17;;;;;;;1999.90;999.90;;;;;;;6.29;32.80;102574.78;4944729;28;99290;-74
2022/03/24 10:25:46;;;;;;;1999.90;999.90;;;;;;;6.36;32.81;102572.63;4947148;28;96694;-73
2022/03/24 10:28:18;;;;;;;1999.90;999.90;;;;;;;6.42;32.82;102569.47;4945426;28;96977;-73
2022/03/24 10:30:47;;;;;;;1999.90;999.90;;;;;;;6.48;33.02;102575.19;4942760;28;98056;-73
2022/03/24 10:33:31;;;;;;;1999.90;999.90;;;;;;;6.54;33.25;102575.59;4944736;28;97526;-74
2022/03/24 10:36:07;;;;;;;1999.90;999.90;;;;;;;6.59;33.16;102575.09;4946550;28;98152;-73
2022/03/24 10:38:36;;;;;;;1999.90;999.90;;;;;;;6.66;32.76;102568.44;4946603;28;98166;-73
2022/03/24 10:41:15;;;;;;;1999.90;999.90;;;;;;;6.72;33.01;102561.84;4945677;28;98985;-73
2022/03/24 10:43:43;;;;;;;1999.90;999.90;;;;;;;6.80;32.69;102562.31;4944364;28;98694;-75
2022/03/24 10:46:19;;;;;;;1999.90;999.90;;;;;;;6.85;32.47;102563.53;4961570;28;96810;-73
2022/03/24 10:48:50;;;;;;;1999.90;999.90;;;;;;;6.89;32.59;102558.53;4947940;28;96837;-73
2022/03/24 10:51:24;;;;;;;1999.90;999.90;;;;;;;6.95;32.41;102563.31;4945128;28;97932;-73
2022/03/24 10:53:55;;;;;;;1999.90;999.90;;;;;;;7.02;32.25;102544.34;4946155;28;98048;-73
2022/03/24 10:56:28;;;;;;;1999.90;999.90;;;;;;;7.08;31.90;102556.25;4944123;28;97193;-74
2022/03/24 10:58:57;;;;;;;1999.90;999.90;;;;;;;7.15;31.84;102544.31;4945867;28;97221;-73
2022/03/24 11:01:27;;;;;;;1999.90;999.90;;;;;;;7.18;32.04;102549.81;4944007;28;97799;-73
2022/03/24 11:03:56;;;;;;;1999.90;999.90;;;;;;;7.22;31.54;102544.78;4944672;28;98925;-73
2022/03/24 11:06:24;;;;;;;1999.90;999.90;;;;;;;7.28;31.83;102549.56;4946350;28;96858;-73